Libuse, LA (71348)

7:00 AM CDT on July 03, 2015 (GMT -0500)
Cherokee Village | | Change Station
CLOSE
Current Station
Personal Weather Station
Location: Alexandria, LA
Elevation: 77 ft
Nearby Weather Stations

Elev 77 ft 31.26 °N, 92.48 °W | Updated 56 seconds ago

Partly Cloudy
Partly Cloudy
75.0 °F
Feels Like 72 °F
N
0.0
Wind Variable Wind from South
Gusts 0.0 mph

Today
High -- | Low -- °F
--% Chance of Precip.
Yesterday
High -- | Low -- °F
Precip. -- in
6:09 AM 8:17 PM
Full, 97% visible
Pressure 30.01 in
Visibility 4.0 miles
Clouds Clear
Heat Index 72 °F
Dew Point 75 °F
Humidity 99%
Rainfall 0.00 in
Snow Depth Not available.
UV 1.0 out of 12
Pollen 3.30 out of 12
Air Quality Not available.
Flu Activity Not available.
METAR KAEX 031153Z 17003KT 4SM BR CLR 24/23 A3000 RMK AO2 SLP163 T02390233 10250 20233 53004

More Conditions Fewer Conditions

Pressure 30.01 in
Visibility 4.0 miles
Clouds Clear
Heat Index 72 °F
Dew Point 75 °F
Humidity 99%
Rainfall 0.00 in
Snow Depth Not available.
UV 1.0 out of 12
Pollen 3.30 out of 12
Air Quality Not available.
Flu Activity Not available.
METAR KAEX 031153Z 17003KT 4SM BR CLR 24/23 A3000 RMK AO2 SLP163 T02390233 10250 20233 53004

More Conditions Fewer Conditions

10-Day Weather Forecast

×

Almanac

Astronomy

Jul. 03, 2015 Rise Set
Actual Time
Civil Twilight
Nautical Twilight
Astronomical Twilight
Moon
Length of Visible Light
Length of Day
Tomorrow will be .
, % of the Moon is Illuminated

Today's Extremes

State Highs State Lows

Community

WunderPhotos

Upload Photos

1,834,656 photos uploaded!

WunderBlogs® & News

Nearby

Air Quality

  Air Quality AQ Index Pollutant
Not available.

Snow Depth

Station Depth Elevation

Earthquake Activity

City Distance Mag. Time & Date
Minimum magnitude displayed is 2.5.

Coastal Water Temperatures

Place Temperature

Stations

Nearby Weather Stations

Station Location Temp. Windchill Dew Point Humidity Wind Precip. Elev Updated Type